Time;durP1;ratioP1;P1;durP2;ratioP2;P2;SDS_P1;SDS_P2;PMS_P1;PMS_P2;Temp;Humidity;BMP_temperature;BMP_pressure;BME280_temperature;BME280_humidity;BME280_pressure;Samples;Min_cycle;Max_cycle;Signal;HPM_P1;HPM_P2
2020/12/02 00:00:17;;;;;;;50.93;24.40;;;;;;;-4.58;83.79;99178.03;5057274;28;20425;-62
2020/12/02 00:03:10;;;;;;;53.47;23.00;;;;;;;-4.57;84.36;99172.22;5056414;28;20406;-62
2020/12/02 00:05:36;;;;;;;49.60;23.13;;;;;;;-4.65;84.13;99174.34;5044114;28;20043;-62
2020/12/02 00:08:20;;;;;;;55.13;24.50;;;;;;;-4.64;84.26;99173.59;5055765;28;20116;-62
2020/12/02 00:10:46;;;;;;;52.20;23.20;;;;;;;-4.73;84.79;99170.63;5055781;28;20404;-62
2020/12/02 00:13:23;;;;;;;47.67;22.07;;;;;;;-4.72;84.58;99170.72;5055577;28;20100;-62
2020/12/02 00:15:48;;;;;;;49.40;23.60;;;;;;;-4.82;84.65;99170.16;5055810;28;20086;-62
2020/12/02 00:18:15;;;;;;;56.73;24.87;;;;;;;-4.83;85.20;99170.94;5055381;28;20384;-62
2020/12/02 00:20:41;;;;;;;53.83;24.83;;;;;;;-4.93;85.37;99169.66;5051077;28;20083;-61
2020/12/02 00:23:06;;;;;;;51.07;24.43;;;;;;;-4.93;85.70;99169.66;5051049;28;20036;-62
2020/12/02 00:25:31;;;;;;;56.00;24.50;;;;;;;-4.88;85.05;99173.22;5054657;28;20033;-62
2020/12/02 00:28:04;;;;;;;53.90;22.73;;;;;;;-4.84;85.51;99176.75;5055640;28;20025;-62
2020/12/02 00:30:33;;;;;;;61.67;24.67;;;;;;;-4.90;85.42;99171.44;5056408;28;20029;-62
2020/12/02 00:33:17;;;;;;;59.53;23.50;;;;;;;-4.85;85.67;99175.88;5040166;28;20065;-62
2020/12/02 00:35:43;;;;;;;57.20;25.00;;;;;;;-4.90;85.61;99174.78;5056350;28;20071;-62
2020/12/02 00:38:12;;;;;;;54.83;25.40;;;;;;;-4.85;85.76;99180.88;5054945;28;20025;-62
2020/12/02 00:40:44;;;;;;;55.30;25.93;;;;;;;-4.83;85.91;99170.94;5052746;28;20051;-62
2020/12/02 00:43:11;;;;;;;64.37;24.40;;;;;;;-4.94;84.81;99164.56;5039835;28;20020;-62
2020/12/02 00:45:36;;;;;;;45.90;23.40;;;;;;;-5.00;85.62;99162.59;5048173;28;20083;-62
2020/12/02 00:48:02;;;;;;;53.50;24.70;;;;;;;-5.03;85.13;99162.47;5052936;28;20159;-62
2020/12/02 00:50:27;;;;;;;52.67;24.10;;;;;;;-5.03;85.40;99167.47;5046166;28;20028;-62
2020/12/02 00:53:04;;;;;;;55.17;24.30;;;;;;;-4.99;85.15;99163.47;5042509;28;20020;-62
2020/12/02 00:55:30;;;;;;;49.17;22.80;;;;;;;-5.07;85.40;99168.09;5044479;28;20029;-62
2020/12/02 00:57:55;;;;;;;54.70;24.23;;;;;;;-4.93;85.72;99171.28;5047339;28;20032;-62
2020/12/02 01:00:24;;;;;;;63.43;24.30;;;;;;;-4.90;85.36;99162.28;5046665;28;20040;-62
2020/12/02 01:02:58;;;;;;;56.40;26.20;;;;;;;-4.80;85.33;99174.47;5049290;28;20116;-62
2020/12/02 01:05:24;;;;;;;56.47;24.73;;;;;;;-4.76;85.30;99180.50;5049501;28;20029;-62
2020/12/02 01:07:50;;;;;;;52.57;22.67;;;;;;;-4.73;85.68;99181.50;5046429;28;20029;-62
2020/12/02 01:10:15;;;;;;;55.67;25.20;;;;;;;-4.65;85.00;99171.84;5054742;28;20489;-62
2020/12/02 01:12:48;;;;;;;54.83;25.47;;;;;;;-4.55;85.04;99166.53;5054645;28;20501;-62
2020/12/02 01:15:18;;;;;;;53.33;24.97;;;;;;;-4.49;84.73;99166.81;5044129;28;20394;-62
2020/12/02 01:18:04;;;;;;;49.27;23.73;;;;;;;-4.46;84.09;99171.13;5055149;28;20354;-62
2020/12/02 01:20:29;;;;;;;;;;;;;;;-4.26;83.37;99177.94;5054236;28;20354;-62
2020/12/02 01:22:55;;;;;;;53.07;24.33;;;;;;;-4.25;83.78;99174.66;5055249;28;19912;-62
2020/12/02 01:25:23;;;;;;;54.80;26.13;;;;;;;-4.16;84.21;99170.91;5053357;28;20033;-62
2020/12/02 01:27:54;;;;;;;52.50;23.03;;;;;;;-4.07;84.63;99167.16;5054926;28;20085;-62
2020/12/02 01:30:22;;;;;;;56.20;23.67;;;;;;;-3.98;85.01;99163.41;5050383;28;20075;-62
2020/12/02 01:32:47;;;;;;;55.47;25.90;;;;;;;-3.89;84.30;99161.34;5055109;28;20480;-62
2020/12/02 01:35:17;;;;;;;49.87;24.97;;;;;;;-3.77;85.16;99163.53;5053269;28;20044;-63
2020/12/02 01:37:46;;;;;;;57.43;26.47;;;;;;;-3.66;85.29;99154.88;5054483;28;20040;-63
2020/12/02 01:40:19;;;;;;;56.87;24.47;;;;;;;-3.55;85.03;99161.22;5044719;28;20041;-62
2020/12/02 01:43:01;;;;;;;52.13;23.47;;;;;;;-3.47;85.53;99161.53;5053370;28;20040;-63
2020/12/02 01:45:37;;;;;;;58.73;25.03;;;;;;;-3.41;85.78;99160.19;5053242;28;20032;-62
2020/12/02 01:48:24;;;;;;;60.77;24.30;;;;;;;-3.27;85.60;99146.59;5054210;28;20081;-63
2020/12/02 01:51:03;;;;;;;53.33;25.00;;;;;;;-3.12;85.49;99155.56;5051106;28;20025;-63
2020/12/02 01:53:31;;;;;;;57.20;24.33;;;;;;;-3.08;85.76;99150.75;5052284;28;20029;-62
2020/12/02 01:56:14;;;;;;;57.57;24.33;;;;;;;-2.98;85.76;99150.38;5046760;28;20052;-62
2020/12/02 01:59:10;;;;;;;52.57;21.90;;;;;;;-2.88;85.74;99152.44;5053788;28;20036;-62
2020/12/02 02:01:48;;;;;;;47.50;21.27;;;;;;;-2.82;86.05;99152.72;5052324;28;20432;-62
2020/12/02 02:04:18;;;;;;;49.40;23.00;;;;;;;-2.76;85.73;99142.91;5053257;28;20021;-63
2020/12/02 02:07:02;;;;;;;57.87;23.17;;;;;;;-2.70;86.15;99133.94;5053163;28;20025;-62
2020/12/02 02:09:29;;;;;;;54.67;24.37;;;;;;;-2.66;85.92;99138.28;5053003;28;20021;-63
2020/12/02 02:12:25;;;;;;;56.20;23.43;;;;;;;-2.57;85.55;99128.63;5053349;28;20386;-62
2020/12/02 02:15:20;;;;;;;49.05;24.00;;;;;;;-2.51;85.65;99134.75;5044508;28;20592;-62
2020/12/02 02:17:46;;;;;;;54.03;23.57;;;;;;;-2.53;85.71;99135.47;5052564;28;20033;-62
2020/12/02 02:20:13;;;;;;;50.73;23.07;;;;;;;-2.48;85.65;99132.38;5050873;28;20040;-62
2020/12/02 02:22:38;;;;;;;50.30;23.70;;;;;;;-2.43;85.47;99130.03;5036545;28;20082;-62
2020/12/02 02:25:06;;;;;;;49.87;21.17;;;;;;;-2.37;84.92;99132.78;5050417;28;20131;-62
2020/12/02 02:27:31;;;;;;;51.53;25.23;;;;;;;-2.34;84.87;99135.44;5051367;28;20024;-62
2020/12/02 02:29:57;;;;;;;52.83;22.27;;;;;;;-2.42;84.66;99129.25;5053826;28;20029;-62
2020/12/02 02:32:28;;;;;;;49.10;22.43;;;;;;;-2.26;84.68;99134.06;5048725;28;20066;-62
2020/12/02 02:34:57;;;;;;;52.07;22.73;;;;;;;-2.28;84.51;99122.25;5054179;28;20115;-62
2020/12/02 02:37:28;;;;;;;52.07;22.27;;;;;;;-2.22;84.63;99125.00;5046780;28;20064;-63
2020/12/02 02:39:55;;;;;;;60.17;24.80;;;;;;;-2.28;85.12;99125.63;5051994;28;20048;-62
2020/12/02 02:42:31;;;;;;;48.47;21.37;;;;;;;-2.17;84.58;99126.91;5047975;28;20083;-63
2020/12/02 02:44:59;;;;;;;49.17;22.03;;;;;;;-2.15;84.45;99120.28;5053150;28;20025;-62
2020/12/02 02:47:24;;;;;;;51.20;23.40;;;;;;;-2.15;84.17;99121.94;5037754;28;20036;-62
2020/12/02 02:49:50;;;;;;;48.73;21.53;;;;;;;-2.07;83.88;99118.06;5051837;28;20025;-63
2020/12/02 02:52:15;;;;;;;49.93;22.57;;;;;;;-2.09;83.61;99119.66;5051924;28;20032;-62
2020/12/02 02:54:41;;;;;;;46.10;22.43;;;;;;;-1.98;83.91;99119.25;5051894;28;20021;-62
2020/12/02 02:57:07;;;;;;;56.93;22.00;;;;;;;-2.01;83.35;99114.13;5046612;28;20064;-62
2020/12/02 02:59:32;;;;;;;48.13;23.27;;;;;;;-1.92;83.01;99109.47;5052771;28;20063;-63
2020/12/02 03:01:58;;;;;;;48.17;22.40;;;;;;;-1.86;82.96;99113.84;5052304;28;20033;-62
2020/12/02 03:04:24;;;;;;;53.33;21.47;;;;;;;-1.86;82.94;99111.31;5052809;28;20454;-62
2020/12/02 03:06:50;;;;;;;45.70;22.33;;;;;;;-1.87;82.58;99112.16;5044280;28;20072;-62
2020/12/02 03:09:16;;;;;;;51.93;22.67;;;;;;;-1.91;83.07;99105.28;5054646;28;20115;-63
2020/12/02 03:11:42;;;;;;;49.40;21.70;;;;;;;-1.90;82.66;99107.84;5055493;28;20032;-62
2020/12/02 03:14:10;;;;;;;47.57;21.70;;;;;;;-1.78;82.78;99104.94;5049824;28;20033;-62
2020/12/02 03:16:43;;;;;;;46.40;22.37;;;;;;;-1.76;82.42;99110.03;5072122;28;20495;-62
2020/12/02 03:19:14;;;;;;;50.27;20.63;;;;;;;-1.75;82.67;99112.59;5075261;28;20126;-62
2020/12/02 03:21:40;;;;;;;45.17;20.77;;;;;;;-1.80;82.72;99116.59;5045031;28;20029;-62
2020/12/02 03:24:08;;;;;;;49.97;23.97;;;;;;;-1.81;82.80;99122.41;5075313;28;20016;-63
2020/12/02 03:26:34;;;;;;;48.93;22.43;;;;;;;-1.78;82.48;99121.69;5074914;28;20032;-63
2020/12/02 03:29:00;;;;;;;47.53;20.83;;;;;;;-1.86;82.49;99122.22;5050211;28;20077;-62
2020/12/02 03:31:26;;;;;;;46.40;21.40;;;;;;;-1.82;82.62;99119.88;5055670;28;20341;-62
2020/12/02 03:33:51;;;;;;;49.53;21.90;;;;;;;-1.83;82.34;99120.66;5054867;28;20633;-62
2020/12/02 03:36:18;;;;;;;46.47;21.63;;;;;;;-1.82;82.77;99114.84;5056068;28;20037;-62
2020/12/02 03:38:44;;;;;;;49.53;22.60;;;;;;;-1.74;82.17;99114.28;5054592;28;20021;-62
2020/12/02 03:41:10;;;;;;;47.30;21.97;;;;;;;-1.73;82.11;99118.53;5055987;28;20044;-63
2020/12/02 03:43:36;;;;;;;47.33;22.70;;;;;;;-1.80;82.21;99120.75;5055587;28;20024;-62
2020/12/02 03:46:02;;;;;;;45.63;22.03;;;;;;;-1.77;82.15;99115.84;5056316;28;20094;-62
2020/12/02 03:48:27;;;;;;;47.83;22.10;;;;;;;-1.77;82.09;99119.22;5052379;28;20158;-63
2020/12/02 03:50:53;;;;;;;42.70;20.77;;;;;;;-1.72;81.49;99122.75;5056242;28;20335;-62
2020/12/02 03:53:18;;;;;;;47.40;22.67;;;;;;;-1.71;81.76;99121.09;5054761;28;20055;-62
2020/12/02 03:55:45;;;;;;;50.53;21.37;;;;;;;-1.64;81.88;99120.53;5056288;28;20029;-62
2020/12/02 03:58:10;;;;;;;47.13;20.90;;;;;;;-1.67;82.07;99117.91;5047437;28;20029;-62
2020/12/02 04:00:36;;;;;;;51.40;24.07;;;;;;;-1.66;81.67;99112.09;5052459;28;20155;-63
2020/12/02 04:03:02;;;;;;;49.53;21.30;;;;;;;-1.66;82.14;99119.63;5055396;28;20035;-62
2020/12/02 04:05:28;;;;;;;56.60;22.33;;;;;;;-1.70;82.29;99110.25;5055172;28;20037;-62
2020/12/02 04:07:53;;;;;;;51.80;20.93;;;;;;;-1.68;82.03;99111.16;5052521;28;20021;-63
2020/12/02 04:10:19;;;;;;;51.37;23.50;;;;;;;-1.73;82.31;99110.97;5054909;28;20055;-63
2020/12/02 04:12:45;;;;;;;56.00;24.20;;;;;;;-1.70;82.56;99108.59;5054421;28;20052;-62
2020/12/02 04:15:13;;;;;;;50.70;22.20;;;;;;;-1.73;82.26;99110.13;5055967;28;20432;-62
2020/12/02 04:17:38;;;;;;;49.63;22.50;;;;;;;-1.73;82.38;99110.13;5053607;28;20052;-62
2020/12/02 04:20:04;;;;;;;55.00;22.93;;;;;;;-1.73;82.24;99112.63;5047680;28;20040;-63
2020/12/02 04:22:30;;;;;;;57.47;25.27;;;;;;;-1.82;82.60;99118.19;5054700;28;20032;-62
2020/12/02 04:24:55;;;;;;;54.90;24.83;;;;;;;-1.82;82.66;99118.19;5041587;28;20400;-62
2020/12/02 04:27:21;;;;;;;57.53;24.90;;;;;;;-1.88;82.65;99113.81;5055086;28;20434;-63
2020/12/02 04:29:46;;;;;;;55.73;24.40;;;;;;;-1.95;82.95;99114.34;5055061;28;20033;-62
2020/12/02 04:32:12;;;;;;;59.30;26.07;;;;;;;-1.97;82.76;99108.44;5054779;28;20049;-62
2020/12/02 04:34:37;;;;;;;56.00;25.10;;;;;;;-1.93;82.86;99117.78;5059657;28;20029;-62
2020/12/02 04:37:03;;;;;;;52.00;25.07;;;;;;;-1.96;82.88;99121.84;5074872;28;20338;-62
2020/12/02 04:39:29;;;;;;;56.43;26.50;;;;;;;-1.93;82.86;99106.88;5060629;28;20063;-62
2020/12/02 04:41:54;;;;;;;54.93;25.30;;;;;;;-1.95;82.98;99113.50;5055357;28;20033;-62
2020/12/02 04:44:21;;;;;;;55.70;23.90;;;;;;;-1.91;82.69;99110.31;5051914;28;20032;-62
2020/12/02 04:46:47;;;;;;;58.60;25.90;;;;;;;-1.86;82.92;99109.66;5055065;28;20362;-63
2020/12/02 04:49:18;;;;;;;57.47;25.77;;;;;;;-1.83;83.22;99108.09;5054125;28;20039;-62
2020/12/02 04:51:44;;;;;;;53.87;24.17;;;;;;;-1.89;82.96;99113.72;5055385;28;20051;-62
2020/12/02 04:54:13;;;;;;;62.27;27.77;;;;;;;-2.05;83.20;99111.44;5051124;28;20354;-62
2020/12/02 04:56:43;;;;;;;57.43;25.17;;;;;;;-1.97;83.85;99112.59;5055317;28;20037;-62
2020/12/02 04:59:09;;;;;;;56.67;25.60;;;;;;;-1.99;83.55;99111.66;5047693;28;20362;-62
2020/12/02 05:01:48;;;;;;;57.23;26.00;;;;;;;-1.88;83.49;99110.44;5053501;28;20036;-62
2020/12/02 05:04:23;;;;;;;56.93;26.70;;;;;;;-1.95;83.75;99104.31;5038895;28;20029;-63
2020/12/02 05:07:04;;;;;;;60.22;26.88;;;;;;;-1.93;83.68;99110.25;5051034;28;20035;-63
2020/12/02 05:09:34;;;;;;;62.37;27.50;;;;;;;-1.91;83.31;99110.31;5052661;28;20031;-62
2020/12/02 05:12:01;;;;;;;57.03;26.57;;;;;;;-2.08;83.86;99106.31;5055970;28;20078;-62
2020/12/02 05:14:46;;;;;;;57.00;24.70;;;;;;;-1.95;84.05;99103.44;5053364;28;20021;-62
2020/12/02 05:17:25;;;;;;;53.13;24.55;;;;;;;-1.86;83.32;99101.28;5057902;28;20036;-62
2020/12/02 05:20:03;;;;;;;54.43;25.50;;;;;;;-1.78;82.87;99099.06;5070630;28;20033;-62
2020/12/02 05:22:34;;;;;;;58.50;25.57;;;;;;;-1.82;82.84;99097.25;5055002;28;20032;-62
2020/12/02 05:24:59;;;;;;;60.70;26.90;;;;;;;-1.87;82.72;99099.59;5051278;28;20040;-62
2020/12/02 05:27:32;;;;;;;58.93;26.70;;;;;;;-1.84;83.34;99104.72;5055185;28;20033;-62
2020/12/02 05:30:03;;;;;;;59.00;25.60;;;;;;;-1.80;83.17;99096.50;5052913;28;20029;-62
2020/12/02 05:32:29;;;;;;;61.27;24.87;;;;;;;-1.89;83.13;99098.66;5069221;28;20422;-62
2020/12/02 05:34:55;;;;;;;57.57;27.03;;;;;;;-1.87;83.76;99107.13;5059675;28;20043;-63
2020/12/02 05:37:40;;;;;;;57.37;26.33;;;;;;;-1.92;83.52;99113.63;5046073;28;20028;-63
2020/12/02 05:40:13;;;;;;;55.70;27.23;;;;;;;-1.97;83.71;99105.91;5053151;28;20032;-62
2020/12/02 05:42:46;;;;;;;62.93;27.83;;;;;;;-1.87;83.20;99105.44;5047046;28;20569;-62
2020/12/02 05:45:38;;;;;;;52.63;23.53;;;;;;;-1.96;83.03;99106.78;5053469;28;20508;-62
2020/12/02 05:48:14;;;;;;;57.30;25.53;;;;;;;-1.86;83.00;99099.63;5053682;28;20432;-62
2020/12/02 05:50:40;;;;;;;60.23;25.73;;;;;;;-1.97;82.99;99100.88;5067860;28;20048;-63
2020/12/02 05:53:20;;;;;;;59.07;24.27;;;;;;;-1.77;82.86;99099.09;5041891;28;20060;-62
2020/12/02 05:55:47;;;;;;;59.40;24.80;;;;;;;-1.93;83.02;99106.88;5053997;28;20056;-61
2020/12/02 05:58:17;;;;;;;58.27;26.70;;;;;;;-1.93;82.79;99102.72;5050777;28;20025;-62
2020/12/02 06:00:43;;;;;;;64.10;26.60;;;;;;;-2.07;83.15;99100.47;5067663;28;20025;-62
2020/12/02 06:03:13;;;;;;;51.03;24.13;;;;;;;-2.01;83.06;99101.56;5054412;28;20461;-62
2020/12/02 06:05:39;;;;;;;61.10;26.30;;;;;;;-2.08;82.98;99103.81;5049664;28;20025;-62
2020/12/02 06:08:07;;;;;;;56.17;25.90;;;;;;;-2.07;83.53;99105.50;5054411;28;20021;-62
2020/12/02 06:10:41;;;;;;;57.90;26.50;;;;;;;-2.02;83.10;99112.41;5050923;28;20081;-62
2020/12/02 06:13:07;;;;;;;59.40;25.63;;;;;;;-2.00;82.75;99112.47;5051041;28;20020;-62
2020/12/02 06:15:37;;;;;;;58.20;25.70;;;;;;;-2.04;83.15;99115.69;5051560;28;20028;-62
2020/12/02 06:18:18;;;;;;;57.53;25.53;;;;;;;-1.92;82.50;99111.97;5058057;28;20043;-62
2020/12/02 06:20:45;;;;;;;55.63;25.87;;;;;;;-2.05;82.61;99111.44;5052860;28;20020;-62
2020/12/02 06:23:10;;;;;;;61.30;28.70;;;;;;;-2.08;82.58;99109.66;5045248;28;20071;-62
2020/12/02 06:25:53;;;;;;;58.63;25.37;;;;;;;-2.02;82.19;99107.38;5053190;28;20354;-61
2020/12/02 06:28:22;;;;;;;52.23;26.10;;;;;;;-2.02;82.25;99124.97;5048173;28;20036;-62
2020/12/02 06:31:03;;;;;;;54.60;24.63;;;;;;;-2.13;82.73;99123.72;5050478;28;20095;-61
2020/12/02 06:33:34;;;;;;;59.73;28.37;;;;;;;-2.12;82.33;99125.41;5051991;28;20131;-61
2020/12/02 06:36:10;;;;;;;57.63;24.33;;;;;;;-2.06;82.05;99118.13;5052760;28;20025;-63
2020/12/02 06:38:36;;;;;;;59.57;28.43;;;;;;;-2.16;81.96;99128.59;5053117;28;20024;-62
2020/12/02 06:41:01;;;;;;;59.97;27.90;;;;;;;-2.24;82.49;99124.94;5047807;28;20032;-62
2020/12/02 06:43:33;;;;;;;62.67;27.00;;;;;;;-2.16;82.49;99123.56;5061799;28;20020;-62
2020/12/02 06:46:03;;;;;;;59.73;25.10;;;;;;;-2.29;83.12;99128.09;5053960;28;20049;-62
2020/12/02 06:48:36;;;;;;;64.37;27.50;;;;;;;-2.26;83.48;99136.59;5039032;28;20028;-62
2020/12/02 06:51:08;;;;;;;65.63;25.63;;;;;;;-2.33;83.02;99135.47;5052525;28;20025;-62
2020/12/02 06:53:33;;;;;;;61.43;28.20;;;;;;;-2.33;83.35;99139.63;5052453;28;20090;-62
2020/12/02 06:56:01;;;;;;;58.20;25.00;;;;;;;-2.19;83.53;99141.03;5058879;28;20028;-62
2020/12/02 06:58:27;;;;;;;64.80;26.33;;;;;;;-2.18;82.74;99140.25;5073172;28;20040;-62
2020/12/02 07:00:56;;;;;;;60.37;27.43;;;;;;;-2.11;82.70;99132.16;5054178;28;20090;-63
2020/12/02 07:03:41;;;;;;;69.10;27.97;;;;;;;-2.03;82.46;99139.97;5052871;28;20477;-62
2020/12/02 07:06:20;;;;;;;64.13;27.87;;;;;;;-1.95;82.04;99136.97;5067536;28;20044;-62
2020/12/02 07:08:48;;;;;;;63.40;27.27;;;;;;;-1.88;82.12;99140.56;5044265;28;20021;-62
2020/12/02 07:11:22;;;;;;;55.23;25.60;;;;;;;-1.73;81.88;99133.59;5053285;28;20079;-62
2020/12/02 07:13:51;;;;;;;59.57;27.00;;;;;;;-1.87;81.30;99143.13;5047261;28;20021;-62
2020/12/02 07:16:33;;;;;;;54.33;24.00;;;;;;;-1.74;81.30;99143.63;5038986;28;20163;-62
2020/12/02 07:19:05;;;;;;;60.83;27.17;;;;;;;-1.71;81.48;99138.69;5048114;28;20029;-62
2020/12/02 07:21:38;;;;;;;59.53;26.73;;;;;;;-1.52;81.29;99139.41;5049270;28;20104;-62
2020/12/02 07:24:04;;;;;;;57.13;24.80;;;;;;;-1.33;80.98;99140.09;5044718;28;20014;-61
2020/12/02 07:26:30;;;;;;;57.20;25.30;;;;;;;-1.26;79.99;99140.34;5038651;28;20450;-61
2020/12/02 07:29:19;;;;;;;55.17;26.23;;;;;;;-1.03;79.94;99137.00;5072148;28;20150;-61
2020/12/02 07:31:45;;;;;;;57.20;26.27;;;;;;;-0.96;79.24;99128.00;5051917;28;20111;-62
2020/12/02 07:34:17;;;;;;;54.93;26.37;;;;;;;-0.76;78.79;99121.09;5052431;28;20534;-62
2020/12/02 07:36:43;;;;;;;59.47;27.13;;;;;;;-0.62;78.40;99122.44;5045924;28;20335;-62
2020/12/02 07:39:18;;;;;;;62.00;26.93;;;;;;;-0.57;78.03;99136.88;5052787;28;20049;-62
2020/12/02 07:42:05;;;;;;;57.80;27.30;;;;;;;-0.87;78.57;99140.91;5051995;28;20353;-62
2020/12/02 07:44:39;;;;;;;51.17;23.60;;;;;;;-0.60;78.91;99136.78;5050260;28;20025;-60
2020/12/02 07:47:10;;;;;;;57.93;26.90;;;;;;;-0.63;78.86;99135.81;5051194;28;20033;-61
2020/12/02 07:49:39;;;;;;;59.90;26.63;;;;;;;-0.69;78.47;99140.66;5053205;28;20051;-61
2020/12/02 07:52:19;;;;;;;54.27;23.67;;;;;;;-0.78;78.32;99137.84;5050888;28;20027;-61
2020/12/02 07:54:45;;;;;;;55.90;23.47;;;;;;;-0.59;78.22;99132.59;5041077;28;20095;-61
2020/12/02 07:57:15;;;;;;;56.20;23.77;;;;;;;-0.51;77.36;99124.47;5054953;28;20138;-61
2020/12/02 07:59:47;;;;;;;54.27;24.60;;;;;;;-0.39;77.22;99124.03;5056552;28;20043;-62
2020/12/02 08:02:17;;;;;;;57.13;24.43;;;;;;;-0.23;76.50;99127.88;5055785;28;20039;-62
2020/12/02 08:04:49;;;;;;;52.97;24.80;;;;;;;-0.18;76.63;99129.75;5048072;28;20036;-62
2020/12/02 08:07:14;;;;;;;52.07;22.93;;;;;;;-0.22;76.35;99133.00;5054088;28;20035;-61
2020/12/02 08:09:49;;;;;;;53.47;23.80;;;;;;;-0.29;76.08;99130.19;5048711;28;20096;-61
2020/12/02 08:12:31;;;;;;;51.63;23.63;;;;;;;-0.31;76.50;99130.16;5047811;28;20021;-61
2020/12/02 08:15:09;;;;;;;55.70;26.27;;;;;;;-0.28;76.34;99130.25;5051830;28;20024;-60
2020/12/02 08:17:35;;;;;;;48.77;21.83;;;;;;;-0.24;76.57;99131.22;5043456;28;20052;-62
2020/12/02 08:20:24;;;;;;;58.53;26.87;;;;;;;-0.07;75.34;99137.63;5048450;28;20438;-62
2020/12/02 08:22:53;;;;;;;51.87;24.57;;;;;;;-0.35;76.21;99130.88;5041920;28;20029;-62
2020/12/02 08:25:57;;;;;;;53.93;24.10;;;;;;;-0.30;76.53;99141.97;5042404;28;20027;-61
2020/12/02 08:28:28;;;;;;;56.33;25.57;;;;;;;-0.67;77.23;99134.84;5046599;28;20065;-61
2020/12/02 08:31:26;;;;;;;53.00;25.27;;;;;;;-0.60;77.96;99136.78;5055161;28;20100;-61
2020/12/02 08:34:07;;;;;;;60.37;25.80;;;;;;;-0.96;78.52;99136.41;5047341;28;20049;-61
2020/12/02 08:36:32;;;;;;;56.17;26.10;;;;;;;-1.08;79.55;99133.47;5040419;28;20328;-62
2020/12/02 08:38:58;;;;;;;56.07;25.83;;;;;;;-0.86;78.85;99131.69;5037788;28;20045;-64
2020/12/02 08:42:11;;;;;;;56.10;25.87;;;;;;;-0.97;79.11;99133.81;5044983;28;20087;-62
2020/12/02 08:48:15;;;;;;;58.83;24.83;;;;;;;-0.93;78.37;99130.59;5047178;28;20048;-61
2020/12/02 08:54:55;;;;;;;56.00;25.27;;;;;;;-0.85;78.67;99129.22;4981679;28;20046;-61
2020/12/02 08:58:14;;;;;;;;;;;;;;;;;;;;;
2020/12/02 09:04:29;;;;;;;58.87;24.57;;;;;;;-1.03;79.07;99129.47;4971770;28;20045;-63
2020/12/02 09:07:36;;;;;;;49.63;22.00;;;;;;;-0.83;79.12;99131.78;4981762;28;20034;-63
2020/12/02 09:10:34;;;;;;;50.93;23.40;;;;;;;-0.67;78.75;99132.34;4924713;29;20063;-63
2020/12/02 10:48:49;;;;;;;40.55;20.23;;;;;;;2.09;66.51;98993.44;5041084;23;20058;-62
2020/12/02 10:51:14;;;;;;;41.50;21.67;;;;;;;2.12;65.55;98992.66;4990539;28;20038;-62
2020/12/02 10:53:43;;;;;;;40.30;19.97;;;;;;;2.12;65.51;98988.44;4991648;28;20037;-62
2020/12/02 10:56:09;;;;;;;43.27;22.73;;;;;;;1.88;66.30;98985.41;4991744;28;20444;-62
2020/12/02 10:58:34;;;;;;;42.37;22.47;;;;;;;1.97;65.83;98989.81;4992362;28;20045;-62
2020/12/02 11:01:03;;;;;;;47.07;22.97;;;;;;;1.88;65.89;98989.63;4991389;28;20096;-63
2020/12/02 11:03:33;;;;;;;42.90;22.90;;;;;;;1.76;66.25;98975.91;4975112;28;20037;-63
2020/12/02 11:05:58;;;;;;;46.83;22.90;;;;;;;1.82;66.19;98967.63;4990548;28;20026;-62
2020/12/02 11:08:49;;;;;;;50.60;22.60;;;;;;;1.75;65.85;98969.16;4974776;28;20049;-62
2020/12/02 11:11:33;;;;;;;42.77;22.70;;;;;;;1.59;66.92;98959.53;4992162;28;20046;-62
2020/12/02 11:14:05;;;;;;;46.43;23.33;;;;;;;1.78;66.60;98960.78;4990545;28;20077;-62
2020/12/02 11:16:50;;;;;;;43.67;21.70;;;;;;;1.39;67.38;98953.19;4992087;28;20030;-63
2020/12/02 11:19:24;;;;;;;38.13;20.37;;;;;;;1.54;67.12;98951.00;4991639;28;20053;-63
2020/12/02 11:22:01;;;;;;;45.27;22.87;;;;;;;1.51;66.33;98942.50;4990438;28;20363;-62
2020/12/02 11:24:43;;;;;;;43.87;21.17;;;;;;;1.39;66.94;98933.00;4991715;28;20030;-63
2020/12/02 11:27:10;;;;;;;49.87;23.10;;;;;;;1.53;67.01;98935.81;4991778;28;20157;-63
2020/12/02 11:29:36;;;;;;;43.10;20.90;;;;;;;1.47;66.71;98926.44;4996222;28;20030;-63
2020/12/02 11:32:21;;;;;;;40.20;19.73;;;;;;;1.37;66.96;98922.84;4995178;28;20034;-63
2020/12/02 11:35:05;;;;;;;42.75;21.67;;;;;;;1.53;66.88;98920.66;4995673;28;20037;-63
2020/12/02 11:37:45;;;;;;;39.77;20.20;;;;;;;1.63;66.50;98908.25;4994349;28;20022;-63
2020/12/02 11:40:25;;;;;;;46.77;23.67;;;;;;;1.46;67.01;98904.50;4995362;28;20148;-62
2020/12/02 11:43:12;;;;;;;43.23;21.73;;;;;;;1.53;67.65;98900.47;4998680;28;20022;-62
2020/12/02 11:45:40;;;;;;;42.87;21.90;;;;;;;1.54;66.85;98889.50;4994824;28;20023;-61
2020/12/02 11:48:16;;;;;;;38.13;20.23;;;;;;;1.50;66.61;98892.78;4995726;28;20065;-61
2020/12/02 11:50:51;;;;;;;41.47;20.87;;;;;;;1.50;66.45;98893.66;4998133;28;20037;-61
2020/12/02 11:53:27;;;;;;;45.60;21.63;;;;;;;1.57;66.57;98892.94;4994627;28;20493;-62
2020/12/02 11:55:53;;;;;;;43.70;20.90;;;;;;;1.59;66.01;98888.78;4988531;28;20278;-62
2020/12/02 11:58:19;;;;;;;40.43;21.90;;;;;;;1.49;66.50;98884.34;4984222;28;20037;-63
2020/12/02 12:00:44;;;;;;;43.00;20.77;;;;;;;1.27;66.93;98892.31;4994309;28;20026;-63
2020/12/02 12:03:12;;;;;;;42.40;19.37;;;;;;;1.24;67.25;98887.19;4974833;28;20026;-62
2020/12/02 12:05:52;;;;;;;41.87;21.40;;;;;;;1.28;67.54;98887.28;4994872;28;20015;-63
2020/12/02 12:08:29;;;;;;;38.83;20.03;;;;;;;1.19;67.98;98884.56;4996716;28;20050;-62
2020/12/02 12:11:06;;;;;;;42.13;19.03;;;;;;;1.25;67.49;98878.78;4995333;28;20022;-62
2020/12/02 12:13:34;;;;;;;43.00;21.17;;;;;;;1.25;67.10;98881.31;4997368;28;20026;-62
2020/12/02 12:16:14;;;;;;;42.93;20.83;;;;;;;1.30;67.27;98875.56;4995622;28;20380;-62
2020/12/02 12:18:45;;;;;;;44.13;21.70;;;;;;;1.22;67.65;98864.44;4991457;28;20033;-62
2020/12/02 12:21:23;;;;;;;40.27;22.13;;;;;;;1.38;66.54;98852.97;4995314;28;20030;-61
2020/12/02 12:23:59;;;;;;;43.80;21.10;;;;;;;1.44;66.30;98860.69;4994920;28;20105;-61
2020/12/02 12:26:30;;;;;;;42.20;19.50;;;;;;;1.36;66.59;98854.59;4994457;28;20038;-63
2020/12/02 12:28:55;;;;;;;45.50;23.07;;;;;;;1.22;67.02;98853.50;4994673;28;20037;-62
2020/12/02 12:31:33;;;;;;;46.27;21.67;;;;;;;1.04;68.08;98828.69;4995715;28;20026;-63
2020/12/02 12:34:23;;;;;;;43.73;20.83;;;;;;;1.26;67.12;98843.50;4994035;28;20368;-62
2020/12/02 12:36:53;;;;;;;39.90;21.23;;;;;;;0.98;68.27;98845.41;4990410;28;20034;-62
2020/12/02 12:39:27;;;;;;;41.33;21.90;;;;;;;1.11;68.18;98834.72;4990356;28;20333;-62
2020/12/02 12:41:53;;;;;;;41.93;19.53;;;;;;;1.14;67.31;98840.72;4993947;28;20523;-62
2020/12/02 12:44:33;;;;;;;41.50;21.40;;;;;;;1.10;67.84;98836.41;4980921;28;20023;-64
2020/12/02 12:47:19;;;;;;;42.90;21.87;;;;;;;1.17;67.86;98837.38;4975950;28;20058;-62
2020/12/02 12:49:44;;;;;;;43.83;21.97;;;;;;;1.00;68.31;98834.50;4992453;28;20038;-62
2020/12/02 12:52:16;;;;;;;41.93;21.13;;;;;;;1.22;67.57;98841.72;4994376;28;20570;-61
2020/12/02 12:54:42;;;;;;;45.20;20.87;;;;;;;1.26;67.05;98838.44;4976673;28;20117;-63
2020/12/02 12:57:15;;;;;;;43.93;21.90;;;;;;;1.33;66.70;98839.41;4991568;28;20022;-62
2020/12/02 12:59:41;;;;;;;45.47;21.23;;;;;;;1.22;67.00;98843.38;4994357;28;20057;-63
2020/12/02 13:02:25;;;;;;;42.60;20.33;;;;;;;1.20;67.97;98833.25;4977101;28;20086;-62
2020/12/02 13:04:52;;;;;;;42.63;21.27;;;;;;;1.09;67.84;98839.75;4980458;28;20101;-61
2020/12/02 13:07:23;;;;;;;39.40;20.40;;;;;;;1.17;67.01;98830.66;4996119;28;20112;-62
2020/12/02 13:10:00;;;;;;;45.67;23.00;;;;;;;0.93;67.66;98830.16;4994276;28;20065;-62
2020/12/02 13:12:26;;;;;;;43.97;21.73;;;;;;;0.81;67.80;98829.84;4993669;28;20382;-61
2020/12/02 13:15:01;;;;;;;41.53;21.17;;;;;;;0.88;68.70;98832.56;4993806;28;20030;-62
2020/12/02 13:17:33;;;;;;;;;;;;;;;0.86;68.47;98826.63;4994132;28;20040;-62
2020/12/02 13:20:17;;;;;;;39.33;19.87;;;;;;;0.78;68.01;98824.75;4976154;28;19916;-63
2020/12/02 13:22:51;;;;;;;42.63;21.20;;;;;;;0.74;68.63;98825.50;4993668;28;20027;-61
2020/12/02 13:25:20;;;;;;;43.45;20.40;;;;;;;0.53;69.05;98812.38;4991962;28;20022;-61
2020/12/02 13:28:20;;;;;;;41.00;21.80;;;;;;;0.48;69.25;98814.78;4976648;28;20065;-60
2020/12/02 13:30:49;;;;;;;41.70;19.83;;;;;;;0.45;69.23;98818.09;4993941;28;20086;-61